Terminal Aerodrome Forecast
Issued by NWS

Current Version | Previous Version | Text Only | Print | Product List | Glossary On
Versions: 1 2 3 4 5 6 7 8 9 10 11 12 13 14 15 16 17 18 19 20 21 22 23 24 25 26 27 28 29 30 31 32 33 34 35 36 37 38
000
FTUS45 KSLC 310852 AAB
TAFENV
TAF AMD
KENV 310852Z 3109/0106 34018G30KT P6SM SKC
     FM311300 32011G17KT P6SM SKC
     FM311900 06008KT P6SM SKC
     FM010200 34008KT P6SM SKC
      AMD LTD TO CLD VIS AND WIND=

USA.gov is the U.S. government's official web portal to all federal, state and local government web resources and services.